createdAt,value
2018-03-06T00:00:57.989Z,15.74
2018-03-06T00:01:58.221Z,15.84
2018-03-06T00:02:58.454Z,15.65
2018-03-06T00:03:58.690Z,15.75
2018-03-06T00:04:58.922Z,15.46
2018-03-06T00:05:59.149Z,15.66
2018-03-06T00:06:59.380Z,15.85
2018-03-06T00:07:59.615Z,15.46
2018-03-06T00:08:59.849Z,15.65
2018-03-06T00:10:00.081Z,15.65
2018-03-06T00:11:00.309Z,15.66
2018-03-06T00:12:00.540Z,15.65
2018-03-06T00:13:00.772Z,15.36
2018-03-06T00:14:01.048Z,15.66
2018-03-06T00:15:01.230Z,15.85
2018-03-06T00:16:01.460Z,15.65
2018-03-06T00:17:01.685Z,15.65
2018-03-06T00:18:01.919Z,15.45
2018-03-06T00:19:02.154Z,15.36
2018-03-06T00:20:02.384Z,15.26
2018-03-06T00:21:02.664Z,15.45
2018-03-06T00:22:02.843Z,15.55
2018-03-06T00:23:03.072Z,15.84
2018-03-06T00:24:03.302Z,15.55
2018-03-06T00:25:03.532Z,15.45
2018-03-06T00:26:03.762Z,15.45
2018-03-06T00:27:03.993Z,15.36
2018-03-06T00:28:04.217Z,15.55
2018-03-06T00:29:04.447Z,15.56
2018-03-06T00:30:04.674Z,15.45
2018-03-06T00:31:04.917Z,15.45
2018-03-06T00:32:05.142Z,15.66
2018-03-06T00:33:05.429Z,15.65
2018-03-06T00:34:05.601Z,15.55
2018-03-06T00:35:05.832Z,15.45
2018-03-06T00:36:06.063Z,15.55
2018-03-06T00:37:06.293Z,15.66
2018-03-06T00:38:06.524Z,15.74
2018-03-06T00:39:06.750Z,15.45
2018-03-06T00:40:06.984Z,15.56
2018-03-06T00:41:07.215Z,15.75
2018-03-06T00:42:07.450Z,15.55
2018-03-06T00:43:07.681Z,15.45
2018-03-06T00:44:07.914Z,15.65
2018-03-06T00:45:08.137Z,15.55
2018-03-06T00:46:08.369Z,15.75
2018-03-06T00:47:08.599Z,15.45
2018-03-06T00:48:08.829Z,15.75
2018-03-06T00:49:09.059Z,15.66
2018-03-06T00:50:09.285Z,15.65
2018-03-06T00:51:09.517Z,15.74
2018-03-06T00:52:09.749Z,15.56
2018-03-06T00:53:09.984Z,15.55
2018-03-06T00:54:10.214Z,15.66
2018-03-06T00:55:10.443Z,15.66
2018-03-06T00:56:10.675Z,15.55
2018-03-06T00:57:10.906Z,15.66
2018-03-06T00:58:11.149Z,15.65
2018-03-06T00:59:11.376Z,15.56
2018-03-06T01:00:11.605Z,15.56
2018-03-06T01:01:11.832Z,15.55
2018-03-06T01:02:12.063Z,15.66
2018-03-06T01:03:12.303Z,15.74
2018-03-06T01:04:12.534Z,15.46
2018-03-06T01:05:12.762Z,15.74
2018-03-06T01:06:12.996Z,15.56
2018-03-06T01:07:13.226Z,15.55
2018-03-06T01:08:13.467Z,15.65
2018-03-06T01:09:13.697Z,15.56
2018-03-06T01:10:13.923Z,15.65
2018-03-06T01:11:14.157Z,15.75
2018-03-06T01:12:14.387Z,15.55
2018-03-06T01:13:14.624Z,15.56
2018-03-06T01:14:14.854Z,15.56
2018-03-06T01:15:15.083Z,15.56
2018-03-06T01:16:15.315Z,15.74
2018-03-06T01:17:15.546Z,15.66
2018-03-06T01:18:15.785Z,15.56
2018-03-06T01:19:16.015Z,15.74
2018-03-06T01:20:16.247Z,15.36
2018-03-06T01:21:16.475Z,15.56
2018-03-06T01:22:16.705Z,15.65
2018-03-06T01:23:16.946Z,15.65
2018-03-06T01:24:17.175Z,15.65
2018-03-06T01:25:17.407Z,15.36
2018-03-06T01:26:17.631Z,15.36
2018-03-06T01:27:17.862Z,15.36
2018-03-06T01:28:18.094Z,15.56
2018-03-06T01:29:18.324Z,15.36
2018-03-06T01:30:18.554Z,15.45
2018-03-06T01:31:18.781Z,15.46
2018-03-06T01:32:19.017Z,15.36
2018-03-06T01:33:19.247Z,15.45
2018-03-06T01:34:19.479Z,15.26
2018-03-06T01:35:19.710Z,15.46
2018-03-06T01:36:19.937Z,15.36
2018-03-06T01:37:20.171Z,15.45
2018-03-06T01:38:20.402Z,15.26
2018-03-06T01:39:20.637Z,15.26
2018-03-06T01:40:20.871Z,15.26
2018-03-06T01:41:21.101Z,15.36
2018-03-06T01:42:21.315Z,15.36
2018-03-06T01:43:21.553Z,15.36
2018-03-06T01:44:21.785Z,15.45
2018-03-06T01:45:22.016Z,15.46
2018-03-06T01:46:22.243Z,15.36
2018-03-06T01:47:22.472Z,15.36
2018-03-06T01:48:22.707Z,15.36
2018-03-06T01:49:22.941Z,15.36
2018-03-06T01:50:23.173Z,15.45
2018-03-06T01:51:23.405Z,15.56
2018-03-06T01:52:23.631Z,15.26
2018-03-06T01:53:23.866Z,15.36
2018-03-06T01:54:24.102Z,15.36
2018-03-06T01:55:24.355Z,15.45
2018-03-06T01:56:24.600Z,15.36
2018-03-06T01:57:24.828Z,15.36
2018-03-06T01:58:25.084Z,15.36
2018-03-06T01:59:25.287Z,15.36
2018-03-06T02:00:25.517Z,15.36
2018-03-06T02:01:25.749Z,15.55
2018-03-06T02:02:25.978Z,15.45
2018-03-06T02:03:26.209Z,15.45
2018-03-06T02:04:26.445Z,15.55
2018-03-06T02:05:26.675Z,15.55
2018-03-06T02:06:26.902Z,15.55
2018-03-06T02:07:27.135Z,15.36
2018-03-06T02:08:27.366Z,15.45
2018-03-06T02:09:27.603Z,15.56
2018-03-06T02:10:27.830Z,15.46
2018-03-06T02:11:28.064Z,15.36
2018-03-06T02:12:28.284Z,15.45
2018-03-06T02:13:28.516Z,15.45
2018-03-06T02:14:28.746Z,15.45
2018-03-06T02:15:28.979Z,15.45
2018-03-06T02:16:29.208Z,15.45
2018-03-06T02:17:29.437Z,15.36
2018-03-06T02:18:29.668Z,15.26
2018-03-06T02:19:29.902Z,15.08
2018-03-06T02:20:30.135Z,15.17
2018-03-06T02:21:30.367Z,15.07
2018-03-06T02:22:30.596Z,15.08
2018-03-06T02:23:30.829Z,15.45
2018-03-06T02:24:31.059Z,15.17
2018-03-06T02:25:31.296Z,15.36
2018-03-06T02:26:31.528Z,15.17
2018-03-06T02:27:31.760Z,15.45
2018-03-06T02:28:31.990Z,15.36
2018-03-06T02:29:32.224Z,15.17
2018-03-06T02:30:32.460Z,14.87
2018-03-06T02:31:32.685Z,15.17
2018-03-06T02:32:32.917Z,15.27
2018-03-06T02:33:33.142Z,15.36
2018-03-06T02:34:33.374Z,15.17
2018-03-06T02:35:33.604Z,14.78
2018-03-06T02:36:33.832Z,14.97
2018-03-06T02:37:34.066Z,14.87
2018-03-06T02:38:34.292Z,14.87
2018-03-06T02:39:34.528Z,14.78
2018-03-06T02:40:34.758Z,14.87
2018-03-06T02:41:34.991Z,14.97
2018-03-06T02:42:35.222Z,15.07
2018-03-06T02:43:35.451Z,15.07
2018-03-06T02:44:35.683Z,14.78
2018-03-06T02:45:35.914Z,14.87
2018-03-06T02:46:36.155Z,15.08
2018-03-06T02:47:36.382Z,15.17
2018-03-06T02:48:36.611Z,15.08
2018-03-06T02:49:36.842Z,14.98
2018-03-06T02:50:37.073Z,15.17
2018-03-06T02:51:37.310Z,15.07
2018-03-06T02:52:37.542Z,15.07
2018-03-06T02:53:37.771Z,15.07
2018-03-06T02:54:38.003Z,14.97
2018-03-06T02:55:38.234Z,15.07
2018-03-06T02:56:38.466Z,15.08
2018-03-06T02:57:38.699Z,14.87
2018-03-06T02:58:38.934Z,14.97
2018-03-06T02:59:39.155Z,15.07
2018-03-06T03:00:39.386Z,14.78
2018-03-06T03:01:39.617Z,14.98
2018-03-06T03:02:39.847Z,14.78
2018-03-06T03:03:40.078Z,15.07
2018-03-06T03:04:40.304Z,15.07
2018-03-06T03:05:40.539Z,14.88
2018-03-06T03:06:40.770Z,14.88
2018-03-06T03:07:41.008Z,14.87
2018-03-06T03:08:41.237Z,14.87
2018-03-06T03:09:41.466Z,15.08
2018-03-06T03:10:41.698Z,15.17
2018-03-06T03:11:41.929Z,15.07
2018-03-06T03:12:42.167Z,15.26
2018-03-06T03:13:42.396Z,15.36
2018-03-06T03:14:42.626Z,15.36
2018-03-06T03:15:42.858Z,15.08
2018-03-06T03:16:43.088Z,15.26
2018-03-06T03:17:43.323Z,15.26
2018-03-06T03:18:43.558Z,15.45
2018-03-06T03:19:43.786Z,15.17
2018-03-06T03:20:44.021Z,15.26
2018-03-06T03:21:44.252Z,15.07
2018-03-06T03:22:44.488Z,15.26
2018-03-06T03:23:44.721Z,15.36
2018-03-06T03:24:44.947Z,15.36
2018-03-06T03:25:45.178Z,15.36
2018-03-06T03:26:45.411Z,15.17
2018-03-06T03:27:45.635Z,15.26
2018-03-06T03:28:45.867Z,15.27
2018-03-06T03:29:46.098Z,15.36
2018-03-06T03:30:46.325Z,15.26
2018-03-06T03:31:46.557Z,15.27
2018-03-06T03:32:46.788Z,15.17
2018-03-06T03:33:47.022Z,15.27
2018-03-06T03:34:47.257Z,15.07
2018-03-06T03:35:47.480Z,15.07
2018-03-06T03:36:47.716Z,15.36
2018-03-06T03:37:47.946Z,15.26
2018-03-06T03:38:48.183Z,15.26
2018-03-06T03:39:48.414Z,14.97
2018-03-06T03:40:48.641Z,15.26
2018-03-06T03:41:48.873Z,15.07
2018-03-06T03:42:49.104Z,15.17
2018-03-06T03:43:49.341Z,15.26
2018-03-06T03:44:49.572Z,15.26
2018-03-06T03:45:49.801Z,15.26
2018-03-06T03:46:50.033Z,15.27
2018-03-06T03:47:50.263Z,15.55
2018-03-06T03:48:50.501Z,15.07
2018-03-06T03:49:50.734Z,15.45
2018-03-06T03:50:50.964Z,15.26
2018-03-06T03:51:51.190Z,15.27
2018-03-06T03:52:51.421Z,15.45
2018-03-06T03:53:51.651Z,15.45
2018-03-06T03:54:51.882Z,15.26
2018-03-06T03:55:52.113Z,14.88
2018-03-06T03:56:52.339Z,15.26
2018-03-06T03:57:52.573Z,14.87
2018-03-06T03:58:52.801Z,15.27
2018-03-06T03:59:53.037Z,15.26
2018-03-06T04:00:53.271Z,15.26
2018-03-06T04:01:53.495Z,15.17
2018-03-06T04:02:53.731Z,15.26
2018-03-06T04:03:53.960Z,15.26
2018-03-06T04:04:54.198Z,15.45
2018-03-06T04:05:54.430Z,15.45
2018-03-06T04:06:54.658Z,15.27
2018-03-06T04:07:54.893Z,15.45
2018-03-06T04:08:55.122Z,15.26
2018-03-06T04:09:55.359Z,15.26
2018-03-06T04:10:55.590Z,15.45
2018-03-06T04:11:55.816Z,15.45
2018-03-06T04:12:56.055Z,15.46
2018-03-06T04:13:56.279Z,15.26
2018-03-06T04:14:56.518Z,15.46
2018-03-06T04:15:56.749Z,15.26
2018-03-06T04:16:56.997Z,15.07
2018-03-06T04:17:57.209Z,15.45
2018-03-06T04:18:57.438Z,15.55
2018-03-06T04:19:57.678Z,15.45
2018-03-06T04:20:57.908Z,15.36
2018-03-06T04:21:58.137Z,15.45
2018-03-06T04:22:58.370Z,15.45
2018-03-06T04:23:58.598Z,15.36
2018-03-06T04:24:58.839Z,15.45
2018-03-06T04:25:59.070Z,15.46
2018-03-06T04:26:59.299Z,15.55
2018-03-06T04:27:59.529Z,15.36
2018-03-06T04:28:59.758Z,15.46
2018-03-06T04:30:00.000Z,15.17
2018-03-06T04:31:00.229Z,14.78
2018-03-06T04:32:00.459Z,15.36
2018-03-06T04:33:00.691Z,15.08
2018-03-06T04:34:00.918Z,15.45
2018-03-06T04:35:01.160Z,15.36
2018-03-06T04:36:01.391Z,15.55
2018-03-06T04:37:01.624Z,15.36
2018-03-06T04:38:01.853Z,15.45
2018-03-06T04:39:02.083Z,15.45
2018-03-06T04:40:02.321Z,15.36
2018-03-06T04:41:02.553Z,14.87
2018-03-06T04:42:02.781Z,15.17
2018-03-06T04:43:03.013Z,15.17
2018-03-06T04:44:03.244Z,15.17
2018-03-06T04:45:03.488Z,15.07
2018-03-06T04:46:03.711Z,15.36
2018-03-06T04:47:03.942Z,15.17
2018-03-06T04:48:04.174Z,15.36
2018-03-06T04:49:04.404Z,15.07
2018-03-06T04:50:04.642Z,15.36
2018-03-06T04:51:04.873Z,15.36
2018-03-06T04:52:05.102Z,14.88
2018-03-06T04:53:05.334Z,14.97
2018-03-06T04:54:05.564Z,15.36
2018-03-06T04:55:05.802Z,15.36
2018-03-06T04:56:06.034Z,15.07
2018-03-06T04:57:06.279Z,14.87
2018-03-06T04:58:06.508Z,14.87
2018-03-06T04:59:06.738Z,14.97
2018-03-06T05:00:06.970Z,14.78
2018-03-06T05:01:07.203Z,14.97
2018-03-06T05:02:07.428Z,14.87
2018-03-06T05:03:07.659Z,14.87
2018-03-06T05:04:07.892Z,14.87
2018-03-06T05:05:08.126Z,14.97
2018-03-06T05:06:08.357Z,14.87
2018-03-06T05:07:08.589Z,14.87
2018-03-06T05:08:08.818Z,14.68
2018-03-06T05:09:09.050Z,14.87
2018-03-06T05:10:09.289Z,14.78
2018-03-06T05:11:09.520Z,14.68
2018-03-06T05:12:09.748Z,14.78
2018-03-06T05:13:09.986Z,14.97
2018-03-06T05:14:10.212Z,14.78
2018-03-06T05:15:10.447Z,14.78
2018-03-06T05:16:10.678Z,14.78
2018-03-06T05:17:10.908Z,14.87
2018-03-06T05:18:11.138Z,14.87
2018-03-06T05:19:11.370Z,14.98
2018-03-06T05:20:11.606Z,14.78
2018-03-06T05:21:11.838Z,14.98
2018-03-06T05:22:12.066Z,14.88
2018-03-06T05:23:12.302Z,14.88
2018-03-06T05:24:12.527Z,14.88
2018-03-06T05:25:12.767Z,15.08
2018-03-06T05:26:12.998Z,15.17
2018-03-06T05:27:13.227Z,15.08
2018-03-06T05:28:13.456Z,15.08
2018-03-06T05:29:13.690Z,15.17
2018-03-06T05:30:13.932Z,14.98
2018-03-06T05:31:14.158Z,14.98
2018-03-06T05:32:14.388Z,15.08
2018-03-06T05:33:14.619Z,15.08
2018-03-06T05:34:14.850Z,14.98
2018-03-06T05:35:15.088Z,14.78
2018-03-06T05:36:15.322Z,15.08
2018-03-06T05:37:15.548Z,15.08
2018-03-06T05:38:15.778Z,15.08
2018-03-06T05:39:16.009Z,14.98
2018-03-06T05:40:16.240Z,14.88
2018-03-06T05:41:16.472Z,14.98
2018-03-06T05:42:16.708Z,14.88
2018-03-06T05:43:16.931Z,15.08
2018-03-06T05:44:17.159Z,14.88
2018-03-06T05:45:17.391Z,14.88
2018-03-06T05:46:17.623Z,14.98
2018-03-06T05:47:17.854Z,14.88
2018-03-06T05:48:18.082Z,14.88
2018-03-06T05:49:18.315Z,14.98
2018-03-06T05:50:18.546Z,14.88
2018-03-06T05:51:18.782Z,14.88
2018-03-06T05:52:19.013Z,15.08
2018-03-06T05:53:19.245Z,14.88
2018-03-06T05:54:19.473Z,14.88
2018-03-06T05:55:19.707Z,14.88
2018-03-06T05:56:19.945Z,14.88
2018-03-06T05:57:20.174Z,14.98
2018-03-06T05:58:20.402Z,15.08
2018-03-06T05:59:20.635Z,14.88
2018-03-06T06:00:20.868Z,14.88
2018-03-06T06:01:21.094Z,14.88
2018-03-06T06:02:21.320Z,15.08
2018-03-06T06:03:21.554Z,15.08
2018-03-06T06:04:21.781Z,15.08
2018-03-06T06:05:22.009Z,14.88
2018-03-06T06:06:22.290Z,14.88
2018-03-06T06:07:22.477Z,14.78
2018-03-06T06:08:22.707Z,14.88
2018-03-06T06:09:22.942Z,14.88
2018-03-06T06:10:23.156Z,14.78
2018-03-06T06:11:23.394Z,14.88
2018-03-06T06:12:23.625Z,14.88
2018-03-06T06:13:23.855Z,14.98
2018-03-06T06:14:24.086Z,14.88
2018-03-06T06:15:24.316Z,14.88
2018-03-06T06:16:24.543Z,15.08
2018-03-06T06:17:24.775Z,14.88
2018-03-06T06:18:25.012Z,14.88
2018-03-06T06:19:25.239Z,14.88
2018-03-06T06:20:25.467Z,14.88
2018-03-06T06:21:25.682Z,14.88
2018-03-06T06:22:25.917Z,14.88
2018-03-06T06:23:26.147Z,14.98
2018-03-06T06:24:26.408Z,14.88
2018-03-06T06:25:26.617Z,14.88
2018-03-06T06:26:26.846Z,14.98
2018-03-06T06:27:27.071Z,14.88
2018-03-06T06:28:27.301Z,14.88
2018-03-06T06:29:27.540Z,14.88
2018-03-06T06:30:27.768Z,14.88
2018-03-06T06:31:28.007Z,14.88
2018-03-06T06:32:28.253Z,14.98
2018-03-06T06:33:28.448Z,14.88
2018-03-06T06:34:28.680Z,14.98
2018-03-06T06:35:28.916Z,14.78
2018-03-06T06:36:29.147Z,14.88
2018-03-06T06:37:29.376Z,14.78
2018-03-06T06:38:29.603Z,14.88
2018-03-06T06:39:29.834Z,14.88
2018-03-06T06:40:30.065Z,14.88
2018-03-06T06:41:30.303Z,14.78
2018-03-06T06:42:30.510Z,14.98
2018-03-06T06:43:30.747Z,14.78
2018-03-06T06:44:30.966Z,14.88
2018-03-06T06:45:31.200Z,14.88
2018-03-06T06:46:31.431Z,14.88
2018-03-06T06:47:31.663Z,14.78
2018-03-06T06:48:31.894Z,14.88
2018-03-06T06:49:32.122Z,14.88
2018-03-06T06:50:32.334Z,14.88
2018-03-06T06:51:32.570Z,14.78
2018-03-06T06:52:32.801Z,14.88
2018-03-06T06:53:33.037Z,14.88
2018-03-06T06:54:33.271Z,14.88
2018-03-06T06:55:33.496Z,14.78
2018-03-06T06:56:33.726Z,14.88
2018-03-06T06:57:33.969Z,15.08
2018-03-06T06:58:34.193Z,14.88
2018-03-06T06:59:34.465Z,14.88
2018-03-06T07:00:34.718Z,14.98
2018-03-06T07:01:34.965Z,14.88
2018-03-06T07:02:35.173Z,14.88
2018-03-06T07:03:35.392Z,14.78
2018-03-06T07:04:35.627Z,14.98
2018-03-06T07:05:35.864Z,14.98
2018-03-06T07:06:36.099Z,14.98
2018-03-06T07:07:36.323Z,14.88
2018-03-06T07:08:36.554Z,14.98
2018-03-06T07:09:36.787Z,15.08
2018-03-06T07:10:37.020Z,14.98
2018-03-06T07:11:37.255Z,14.98
2018-03-06T07:12:37.490Z,14.98
2018-03-06T07:13:37.714Z,14.78
2018-03-06T07:14:37.938Z,14.98
2018-03-06T07:15:38.170Z,14.88
2018-03-06T07:16:38.404Z,14.98
2018-03-06T07:17:38.635Z,14.88
2018-03-06T07:18:38.871Z,14.88
2018-03-06T07:19:39.093Z,14.88
2018-03-06T07:20:39.315Z,14.98
2018-03-06T07:21:39.627Z,14.88
2018-03-06T07:22:39.862Z,14.78
2018-03-06T07:23:40.073Z,14.88
2018-03-06T07:24:40.288Z,15.08
2018-03-06T07:25:40.523Z,14.78
2018-03-06T07:26:40.743Z,14.88
2018-03-06T07:27:40.980Z,14.88
2018-03-06T07:28:41.219Z,14.88
2018-03-06T07:29:41.451Z,14.88
2018-03-06T07:30:41.663Z,14.88
2018-03-06T07:31:41.895Z,14.88
2018-03-06T07:32:42.122Z,14.88
2018-03-06T07:33:42.354Z,14.88
2018-03-06T07:34:42.579Z,14.88
2018-03-06T07:35:42.811Z,14.88
2018-03-06T07:36:43.040Z,14.98
2018-03-06T07:37:43.272Z,14.88
2018-03-06T07:38:43.502Z,15.08
2018-03-06T07:39:43.734Z,14.98
2018-03-06T07:40:43.964Z,14.78
2018-03-06T07:41:44.192Z,14.88
2018-03-06T07:42:44.444Z,15.17
2018-03-06T07:43:44.683Z,14.88
2018-03-06T07:44:44.912Z,15.08
2018-03-06T07:45:45.176Z,15.08
2018-03-06T07:46:45.326Z,14.78
2018-03-06T07:47:45.564Z,14.88
2018-03-06T07:48:45.807Z,14.88
2018-03-06T07:49:46.038Z,14.78
2018-03-06T07:50:46.398Z,14.88
2018-03-06T07:51:46.491Z,14.98
2018-03-06T07:52:46.721Z,14.78
2018-03-06T07:53:46.964Z,14.78
2018-03-06T07:54:47.194Z,14.78
2018-03-06T07:55:47.428Z,14.78
2018-03-06T07:56:47.659Z,14.69
2018-03-06T07:57:47.896Z,14.98
2018-03-06T07:58:48.122Z,14.78
2018-03-06T07:59:48.352Z,14.88
2018-03-06T08:00:48.582Z,14.88
2018-03-06T08:01:48.810Z,14.98
2018-03-06T08:02:49.040Z,14.69
2018-03-06T08:03:49.306Z,14.88
2018-03-06T08:04:49.519Z,14.78
2018-03-06T08:05:49.748Z,14.88
2018-03-06T08:06:49.961Z,14.88
2018-03-06T08:07:50.203Z,14.88
2018-03-06T08:08:50.431Z,14.98
2018-03-06T08:09:50.661Z,14.88
2018-03-06T08:10:50.907Z,14.98
2018-03-06T08:11:51.118Z,14.88
2018-03-06T08:12:51.352Z,14.88
2018-03-06T08:13:51.581Z,14.88
2018-03-06T08:14:51.816Z,14.88
2018-03-06T08:15:52.047Z,14.69
2018-03-06T08:16:52.279Z,14.78
2018-03-06T08:17:52.527Z,14.98
2018-03-06T08:18:52.735Z,14.88
2018-03-06T08:19:52.979Z,14.78
2018-03-06T08:20:53.223Z,14.69
2018-03-06T08:21:53.451Z,14.98
2018-03-06T08:22:53.682Z,14.69
2018-03-06T08:23:53.920Z,14.78
2018-03-06T08:24:54.155Z,14.78
2018-03-06T08:25:54.384Z,14.78
2018-03-06T08:26:54.619Z,14.88
2018-03-06T08:27:54.847Z,14.78
2018-03-06T08:28:55.085Z,14.78
2018-03-06T08:29:55.316Z,14.78
2018-03-06T08:30:55.545Z,14.69
2018-03-06T08:31:55.771Z,14.88
2018-03-06T08:32:55.995Z,14.98
2018-03-06T08:33:56.226Z,14.69
2018-03-06T08:34:56.458Z,14.98
2018-03-06T08:35:56.687Z,14.98
2018-03-06T08:36:56.917Z,14.98
2018-03-06T08:37:57.142Z,14.69
2018-03-06T08:38:57.394Z,14.88
2018-03-06T08:39:57.645Z,14.78
2018-03-06T08:40:57.869Z,14.98
2018-03-06T08:41:58.106Z,14.69
2018-03-06T08:42:58.335Z,14.69
2018-03-06T08:43:58.568Z,15.17
2018-03-06T08:44:58.800Z,14.88
2018-03-06T08:45:59.029Z,15.08
2018-03-06T08:46:59.256Z,14.88
2018-03-06T08:47:59.491Z,15.08
2018-03-06T08:48:59.727Z,15.17
2018-03-06T08:49:59.958Z,14.88
2018-03-06T08:51:00.188Z,14.98
2018-03-06T08:52:00.426Z,15.36
2018-03-06T08:53:00.650Z,15.46
2018-03-06T08:54:00.895Z,14.78
2018-03-06T08:55:01.127Z,15.17
2018-03-06T08:56:01.365Z,14.98
2018-03-06T08:57:01.576Z,14.98
2018-03-06T08:58:01.793Z,15.27
2018-03-06T09:00:33.600Z,14.98
2018-03-06T09:01:33.831Z,14.69
2018-03-06T09:02:34.060Z,14.78
2018-03-06T09:03:34.298Z,15.08
2018-03-06T09:04:34.520Z,14.78
2018-03-06T09:05:34.766Z,14.98
2018-03-06T09:06:34.995Z,14.98
2018-03-06T09:07:35.242Z,15.08
2018-03-06T09:08:35.473Z,14.98
2018-03-06T09:09:35.706Z,14.88
2018-03-06T09:10:35.934Z,14.88
2018-03-06T09:11:36.169Z,14.78
2018-03-06T09:12:36.396Z,14.69
2018-03-06T09:13:36.626Z,14.88
2018-03-06T09:14:36.866Z,14.69
2018-03-06T09:15:37.121Z,14.69
2018-03-06T09:16:37.354Z,15.08
2018-03-06T09:17:37.589Z,14.98
2018-03-06T09:18:37.816Z,14.98
2018-03-06T09:19:38.045Z,14.98
2018-03-06T09:20:38.293Z,14.69
2018-03-06T09:21:38.505Z,14.78
2018-03-06T09:22:38.735Z,14.78
2018-03-06T09:23:38.981Z,14.88
2018-03-06T09:24:39.211Z,14.78
2018-03-06T09:25:39.452Z,14.88
2018-03-06T09:26:39.692Z,14.88
2018-03-06T09:27:39.912Z,14.69
2018-03-06T09:28:40.145Z,15.08
2018-03-06T09:29:40.376Z,14.88
2018-03-06T09:30:40.606Z,14.88
2018-03-06T09:31:40.824Z,14.88
2018-03-06T09:32:41.055Z,14.88
2018-03-06T09:33:41.307Z,14.88
2018-03-06T09:34:41.537Z,14.98
2018-03-06T09:35:41.758Z,14.88
2018-03-06T09:36:41.985Z,14.88
2018-03-06T09:37:42.218Z,14.78
2018-03-06T09:38:42.446Z,14.88
2018-03-06T09:39:42.684Z,14.98
2018-03-06T09:40:42.919Z,14.88
2018-03-06T09:41:43.140Z,14.88
2018-03-06T09:42:43.367Z,14.88
2018-03-06T09:43:43.602Z,14.88
2018-03-06T09:44:43.836Z,14.88
2018-03-06T09:45:44.066Z,14.98
2018-03-06T09:46:44.299Z,14.88
2018-03-06T09:47:44.529Z,14.78
2018-03-06T09:48:44.758Z,14.88
2018-03-06T09:49:45.010Z,14.88
2018-03-06T09:50:45.247Z,14.98
2018-03-06T09:51:45.467Z,14.98
2018-03-06T09:52:45.701Z,14.88
2018-03-06T09:53:45.927Z,14.98
2018-03-06T09:54:46.158Z,14.88
2018-03-06T09:55:46.393Z,14.88
2018-03-06T09:56:46.618Z,14.88
2018-03-06T09:57:46.845Z,15.17
2018-03-06T09:58:47.118Z,15.17
2018-03-06T09:59:47.361Z,14.98
2018-03-06T10:00:47.595Z,15.17
2018-03-06T10:01:47.795Z,14.88
2018-03-06T10:02:48.024Z,15.17
2018-03-06T10:03:48.260Z,14.88
2018-03-06T10:04:48.492Z,14.88
2018-03-06T10:05:48.726Z,14.78
2018-03-06T10:06:48.947Z,14.88
2018-03-06T10:07:49.184Z,15.17
2018-03-06T10:08:49.405Z,15.17
2018-03-06T10:09:49.636Z,14.88
2018-03-06T10:10:49.864Z,14.88
2018-03-06T10:11:50.094Z,15.17
2018-03-06T10:12:50.328Z,14.88
2018-03-06T10:13:50.543Z,15.17
2018-03-06T10:14:50.773Z,14.88
2018-03-06T10:15:51.019Z,14.88
2018-03-06T10:16:51.254Z,14.88
2018-03-06T10:17:51.476Z,15.08
2018-03-06T10:18:51.706Z,15.08
2018-03-06T10:19:51.936Z,14.88
2018-03-06T10:20:52.179Z,14.98
2018-03-06T10:21:52.415Z,14.88
2018-03-06T10:22:52.636Z,14.88
2018-03-06T10:23:52.872Z,14.78
2018-03-06T10:24:53.098Z,14.88
2018-03-06T10:25:53.328Z,14.88
2018-03-06T10:26:53.560Z,14.78
2018-03-06T10:27:53.789Z,14.98
2018-03-06T10:28:54.007Z,14.88
2018-03-06T10:29:54.234Z,14.88
2018-03-06T10:30:54.465Z,14.88
2018-03-06T10:31:54.701Z,15.08
2018-03-06T10:32:54.929Z,15.17
2018-03-06T10:33:55.172Z,14.98
2018-03-06T10:34:55.387Z,14.88
2018-03-06T10:35:55.618Z,14.98
2018-03-06T10:36:55.854Z,14.88
2018-03-06T10:37:56.077Z,15.17
2018-03-06T10:38:56.305Z,15.17
2018-03-06T10:39:56.542Z,14.88
2018-03-06T10:40:56.761Z,14.88
2018-03-06T10:41:56.983Z,14.88
2018-03-06T10:42:57.235Z,15.17
2018-03-06T10:43:57.469Z,14.98
2018-03-06T10:44:57.699Z,14.88
2018-03-06T10:45:57.928Z,14.69
2018-03-06T10:46:58.161Z,14.98
2018-03-06T10:47:58.396Z,14.69
2018-03-06T10:48:58.626Z,14.88
2018-03-06T10:49:58.861Z,14.88
2018-03-06T10:50:59.087Z,14.69
2018-03-06T10:51:59.316Z,14.88
2018-03-06T10:52:59.555Z,14.78
2018-03-06T10:53:59.793Z,14.88
2018-03-06T10:55:00.021Z,14.78
2018-03-06T10:56:00.236Z,14.69
2018-03-06T10:57:00.469Z,14.98
2018-03-06T10:58:00.723Z,14.78
2018-03-06T10:59:00.951Z,14.78
2018-03-06T11:00:01.581Z,14.98
2018-03-06T11:01:01.469Z,14.69
2018-03-06T11:02:01.692Z,15.17
2018-03-06T11:03:01.930Z,15.17
2018-03-06T11:04:02.131Z,15.56
2018-03-06T11:05:02.349Z,15.56
2018-03-06T11:06:02.592Z,15.46
2018-03-06T11:07:02.810Z,15.46
2018-03-06T11:08:03.041Z,15.17
2018-03-06T11:09:03.275Z,15.08
2018-03-06T11:10:03.512Z,15.46
2018-03-06T11:11:03.717Z,15.36
2018-03-06T11:12:03.955Z,15.17
2018-03-06T11:13:04.185Z,14.78
2018-03-06T11:14:04.415Z,15.08
2018-03-06T11:15:04.645Z,14.69
2018-03-06T11:16:04.873Z,14.98
2018-03-06T11:17:05.088Z,14.88
2018-03-06T11:18:05.338Z,14.88
2018-03-06T11:19:05.585Z,14.98
2018-03-06T11:20:05.816Z,14.98
2018-03-06T11:21:06.032Z,14.88
2018-03-06T11:22:06.256Z,14.98
2018-03-06T11:23:06.486Z,14.98
2018-03-06T11:24:06.717Z,14.88
2018-03-06T11:25:06.947Z,14.78
2018-03-06T11:26:07.178Z,14.79
2018-03-06T11:27:07.405Z,14.88
2018-03-06T11:28:07.632Z,14.78
2018-03-06T11:29:07.861Z,14.69
2018-03-06T11:30:08.102Z,14.88
2018-03-06T11:31:08.332Z,14.69
2018-03-06T11:32:08.615Z,14.69
2018-03-06T11:33:08.791Z,14.88
2018-03-06T11:34:09.021Z,14.78
2018-03-06T11:35:09.251Z,14.78
2018-03-06T11:36:09.481Z,14.98
2018-03-06T11:37:09.711Z,14.69
2018-03-06T11:38:09.940Z,14.69
2018-03-06T11:39:10.177Z,14.69
2018-03-06T11:40:10.410Z,14.88
2018-03-06T11:41:10.640Z,14.70
2018-03-06T11:42:10.870Z,14.88
2018-03-06T11:43:11.100Z,14.69
2018-03-06T11:44:11.330Z,14.79
2018-03-06T11:45:11.561Z,14.69
2018-03-06T11:46:11.797Z,14.78
2018-03-06T11:47:12.029Z,14.88
2018-03-06T11:48:12.260Z,14.78
2018-03-06T11:49:12.479Z,14.88
2018-03-06T11:50:12.691Z,14.78
2018-03-06T11:51:12.930Z,14.88
2018-03-06T11:52:13.154Z,14.69
2018-03-06T11:53:13.384Z,14.88
2018-03-06T11:54:13.614Z,14.98
2018-03-06T11:55:13.839Z,14.98
2018-03-06T11:56:14.063Z,14.78
2018-03-06T11:57:14.293Z,14.98
2018-03-06T11:58:14.522Z,14.78
2018-03-06T11:59:14.752Z,14.98
2018-03-06T12:00:15.005Z,14.88
2018-03-06T12:01:15.224Z,14.98
2018-03-06T12:02:15.451Z,14.78
2018-03-06T12:03:15.685Z,14.98
2018-03-06T12:04:15.926Z,14.98
2018-03-06T12:05:16.162Z,14.88
2018-03-06T12:06:16.382Z,14.70
2018-03-06T12:07:16.612Z,14.70
2018-03-06T12:08:16.853Z,14.98
2018-03-06T12:09:17.075Z,14.98
2018-03-06T12:10:17.308Z,14.98
2018-03-06T12:11:17.946Z,14.98
2018-03-06T12:12:17.771Z,15.08
2018-03-06T12:13:18.344Z,14.78
2018-03-06T12:14:18.237Z,14.69
2018-03-06T12:15:18.466Z,14.88
2018-03-06T12:16:18.746Z,14.88
2018-03-06T12:17:18.926Z,15.08
2018-03-06T12:18:19.145Z,15.08
2018-03-06T12:19:19.382Z,15.17
2018-03-06T12:20:19.617Z,15.17
2018-03-06T12:21:19.855Z,14.78
2018-03-06T12:22:20.075Z,15.17
2018-03-06T12:23:20.307Z,14.88
2018-03-06T12:24:20.536Z,14.70
2018-03-06T12:25:20.769Z,14.98
2018-03-06T12:26:20.999Z,14.78
2018-03-06T12:27:21.231Z,15.17
2018-03-06T12:28:21.446Z,14.88
2018-03-06T12:29:21.680Z,15.08
2018-03-06T12:30:21.911Z,15.08
2018-03-06T12:31:22.144Z,15.27
2018-03-06T12:32:22.373Z,14.79
2018-03-06T12:33:22.601Z,15.17
2018-03-06T12:34:22.826Z,15.08
2018-03-06T12:35:23.055Z,14.98
2018-03-06T12:36:23.287Z,15.08
2018-03-06T12:37:23.525Z,15.08
2018-03-06T12:38:23.760Z,15.08
2018-03-06T12:39:23.982Z,15.18
2018-03-06T12:40:24.207Z,14.98
2018-03-06T12:41:24.437Z,15.27
2018-03-06T12:42:24.682Z,14.88
2018-03-06T12:43:24.909Z,14.98
2018-03-06T12:44:25.147Z,15.17
2018-03-06T12:45:25.374Z,15.36
2018-03-06T12:46:25.605Z,15.17
2018-03-06T12:47:25.840Z,15.17
2018-03-06T12:48:26.069Z,15.17
2018-03-06T12:49:26.295Z,14.78
2018-03-06T12:50:26.521Z,15.17
2018-03-06T12:51:26.741Z,15.17
2018-03-06T12:52:26.971Z,15.08
2018-03-06T12:53:27.216Z,15.17
2018-03-06T12:54:27.455Z,15.27
2018-03-06T12:55:27.673Z,15.17
2018-03-06T12:56:27.912Z,14.70
2018-03-06T12:57:28.135Z,15.37